sensor_id;sensor_type;location;lat;lon;timestamp;P1;durP1;ratioP1;P2;durP2;ratioP2
18754;SDS011;35061;47.664;9.166;2022-08-03T00:00:28;3.03;;;2.22;;
18754;SDS011;35061;47.664;9.166;2022-08-03T00:02:55;2.85;;;2.28;;
18754;SDS011;35061;47.664;9.166;2022-08-03T00:05:23;2.10;;;1.90;;
18754;SDS011;35061;47.664;9.166;2022-08-03T00:07:51;2.53;;;2.28;;
18754;SDS011;35061;47.664;9.166;2022-08-03T00:10:18;2.92;;;2.22;;
18754;SDS011;35061;47.664;9.166;2022-08-03T00:12:46;3.08;;;2.58;;
18754;SDS011;35061;47.664;9.166;2022-08-03T00:15:14;3.10;;;2.28;;
18754;SDS011;35061;47.664;9.166;2022-08-03T00:17:42;2.60;;;2.40;;
18754;SDS011;35061;47.664;9.166;2022-08-03T00:20:19;2.60;;;2.37;;
18754;SDS011;35061;47.664;9.166;2022-08-03T00:22:48;2.47;;;2.28;;
18754;SDS011;35061;47.664;9.166;2022-08-03T00:25:16;3.12;;;2.78;;
18754;SDS011;35061;47.664;9.166;2022-08-03T00:27:44;3.20;;;2.35;;
18754;SDS011;35061;47.664;9.166;2022-08-03T00:30:13;2.80;;;2.60;;
18754;SDS011;35061;47.664;9.166;2022-08-03T00:32:42;4.07;;;2.60;;
18754;SDS011;35061;47.664;9.166;2022-08-03T00:35:10;3.50;;;2.65;;
18754;SDS011;35061;47.664;9.166;2022-08-03T00:37:58;3.10;;;2.80;;
18754;SDS011;35061;47.664;9.166;2022-08-03T00:40:26;2.78;;;2.47;;
18754;SDS011;35061;47.664;9.166;2022-08-03T00:42:58;2.53;;;2.30;;
18754;SDS011;35061;47.664;9.166;2022-08-03T00:45:31;4.07;;;2.80;;
18754;SDS011;35061;47.664;9.166;2022-08-03T00:48:02;2.87;;;2.67;;
18754;SDS011;35061;47.664;9.166;2022-08-03T00:50:32;2.97;;;2.67;;
18754;SDS011;35061;47.664;9.166;2022-08-03T00:53:02;3.87;;;2.62;;
18754;SDS011;35061;47.664;9.166;2022-08-03T00:55:32;3.70;;;2.55;;
18754;SDS011;35061;47.664;9.166;2022-08-03T00:58:02;4.65;;;2.87;;
18754;SDS011;35061;47.664;9.166;2022-08-03T01:00:34;4.00;;;2.67;;
18754;SDS011;35061;47.664;9.166;2022-08-03T01:03:06;2.87;;;2.67;;
18754;SDS011;35061;47.664;9.166;2022-08-03T01:05:41;4.85;;;2.58;;
18754;SDS011;35061;47.664;9.166;2022-08-03T01:08:24;3.83;;;2.47;;
18754;SDS011;35061;47.664;9.166;2022-08-03T01:13:40;2.78;;;2.53;;
18754;SDS011;35061;47.664;9.166;2022-08-03T01:16:41;3.90;;;2.47;;
18754;SDS011;35061;47.664;9.166;2022-08-03T01:25:17;2.97;;;2.28;;
18754;SDS011;35061;47.664;9.166;2022-08-03T01:31:06;3.28;;;2.97;;
18754;SDS011;35061;47.664;9.166;2022-08-03T01:33:41;3.00;;;2.70;;
18754;SDS011;35061;47.664;9.166;2022-08-03T01:36:13;3.17;;;2.85;;
18754;SDS011;35061;47.664;9.166;2022-08-03T01:38:47;3.03;;;2.67;;
18754;SDS011;35061;47.664;9.166;2022-08-03T01:41:23;6.20;;;2.80;;
18754;SDS011;35061;47.664;9.166;2022-08-03T01:43:56;3.15;;;2.85;;
18754;SDS011;35061;47.664;9.166;2022-08-03T01:46:46;2.95;;;2.70;;
18754;SDS011;35061;47.664;9.166;2022-08-03T01:49:17;3.20;;;2.90;;
18754;SDS011;35061;47.664;9.166;2022-08-03T01:51:46;3.20;;;2.90;;
18754;SDS011;35061;47.664;9.166;2022-08-03T01:54:30;4.95;;;2.70;;
18754;SDS011;35061;47.664;9.166;2022-08-03T01:57:02;3.42;;;2.90;;
18754;SDS011;35061;47.664;9.166;2022-08-03T01:59:31;3.90;;;3.20;;
18754;SDS011;35061;47.664;9.166;2022-08-03T02:02:03;6.05;;;3.15;;
18754;SDS011;35061;47.664;9.166;2022-08-03T02:04:52;5.05;;;2.92;;
18754;SDS011;35061;47.664;9.166;2022-08-03T02:07:23;3.00;;;2.70;;
18754;SDS011;35061;47.664;9.166;2022-08-03T02:09:53;3.62;;;2.92;;
18754;SDS011;35061;47.664;9.166;2022-08-03T02:12:24;2.65;;;2.45;;
18754;SDS011;35061;47.664;9.166;2022-08-03T02:14:54;3.00;;;2.70;;
18754;SDS011;35061;47.664;9.166;2022-08-03T02:17:26;3.05;;;2.60;;
18754;SDS011;35061;47.664;9.166;2022-08-03T02:20:05;3.12;;;2.75;;
18754;SDS011;35061;47.664;9.166;2022-08-03T02:22:35;3.40;;;3.10;;
18754;SDS011;35061;47.664;9.166;2022-08-03T02:25:09;3.47;;;2.92;;
18754;SDS011;35061;47.664;9.166;2022-08-03T02:27:45;4.93;;;3.22;;
18754;SDS011;35061;47.664;9.166;2022-08-03T02:30:19;2.83;;;2.62;;
18754;SDS011;35061;47.664;9.166;2022-08-03T02:32:50;3.47;;;3.17;;
18754;SDS011;35061;47.664;9.166;2022-08-03T02:35:21;3.22;;;2.55;;
18754;SDS011;35061;47.664;9.166;2022-08-03T02:37:54;3.53;;;2.78;;
18754;SDS011;35061;47.664;9.166;2022-08-03T02:40:27;2.95;;;2.58;;
18754;SDS011;35061;47.664;9.166;2022-08-03T02:42:57;4.03;;;2.97;;
18754;SDS011;35061;47.664;9.166;2022-08-03T02:45:28;2.80;;;2.60;;
18754;SDS011;35061;47.664;9.166;2022-08-03T02:48:02;4.70;;;3.00;;
18754;SDS011;35061;47.664;9.166;2022-08-03T02:50:32;3.67;;;2.60;;
18754;SDS011;35061;47.664;9.166;2022-08-03T02:53:02;3.35;;;3.05;;
18754;SDS011;35061;47.664;9.166;2022-08-03T02:55:32;3.20;;;2.95;;
18754;SDS011;35061;47.664;9.166;2022-08-03T02:58:08;4.03;;;3.55;;
18754;SDS011;35061;47.664;9.166;2022-08-03T03:00:38;3.92;;;3.53;;
18754;SDS011;35061;47.664;9.166;2022-08-03T03:03:10;3.47;;;3.17;;
18754;SDS011;35061;47.664;9.166;2022-08-03T03:05:39;3.83;;;3.45;;
18754;SDS011;35061;47.664;9.166;2022-08-03T03:08:22;3.53;;;3.12;;
18754;SDS011;35061;47.664;9.166;2022-08-03T03:10:54;3.70;;;3.10;;
18754;SDS011;35061;47.664;9.166;2022-08-03T03:13:29;3.10;;;2.80;;
18754;SDS011;35061;47.664;9.166;2022-08-03T03:15:59;3.20;;;2.90;;
18754;SDS011;35061;47.664;9.166;2022-08-03T03:18:30;4.18;;;3.40;;
18754;SDS011;35061;47.664;9.166;2022-08-03T03:20:59;3.40;;;3.10;;
18754;SDS011;35061;47.664;9.166;2022-08-03T03:23:29;4.87;;;3.60;;
18754;SDS011;35061;47.664;9.166;2022-08-03T03:25:59;4.57;;;3.75;;
18754;SDS011;35061;47.664;9.166;2022-08-03T03:28:28;3.92;;;3.60;;
18754;SDS011;35061;47.664;9.166;2022-08-03T03:30:58;4.00;;;3.47;;
18754;SDS011;35061;47.664;9.166;2022-08-03T03:33:26;3.30;;;3.00;;
18754;SDS011;35061;47.664;9.166;2022-08-03T03:35:54;4.30;;;3.78;;
18754;SDS011;35061;47.664;9.166;2022-08-03T03:38:24;3.45;;;3.15;;
18754;SDS011;35061;47.664;9.166;2022-08-03T03:40:53;3.97;;;3.20;;
18754;SDS011;35061;47.664;9.166;2022-08-03T03:43:22;3.30;;;3.00;;
18754;SDS011;35061;47.664;9.166;2022-08-03T03:45:50;4.35;;;3.15;;
18754;SDS011;35061;47.664;9.166;2022-08-03T03:48:19;4.62;;;3.00;;
18754;SDS011;35061;47.664;9.166;2022-08-03T03:50:49;3.62;;;2.95;;
18754;SDS011;35061;47.664;9.166;2022-08-03T03:53:17;4.00;;;3.10;;
18754;SDS011;35061;47.664;9.166;2022-08-03T03:55:44;3.95;;;3.55;;
18754;SDS011;35061;47.664;9.166;2022-08-03T03:58:27;3.53;;;3.20;;
18754;SDS011;35061;47.664;9.166;2022-08-03T04:00:56;4.15;;;2.67;;
18754;SDS011;35061;47.664;9.166;2022-08-03T04:03:24;3.20;;;2.75;;
18754;SDS011;35061;47.664;9.166;2022-08-03T04:05:51;3.15;;;2.80;;
18754;SDS011;35061;47.664;9.166;2022-08-03T04:08:54;3.90;;;3.50;;
18754;SDS011;35061;47.664;9.166;2022-08-03T04:11:50;3.40;;;3.10;;
18754;SDS011;35061;47.664;9.166;2022-08-03T04:14:20;3.12;;;2.83;;
18754;SDS011;35061;47.664;9.166;2022-08-03T04:16:53;3.30;;;3.00;;
18754;SDS011;35061;47.664;9.166;2022-08-03T04:19:34;3.35;;;3.05;;
18754;SDS011;35061;47.664;9.166;2022-08-03T04:22:11;3.92;;;3.30;;
18754;SDS011;35061;47.664;9.166;2022-08-03T04:24:56;3.50;;;3.05;;
18754;SDS011;35061;47.664;9.166;2022-08-03T04:27:34;3.60;;;3.30;;
18754;SDS011;35061;47.664;9.166;2022-08-03T04:30:05;3.37;;;3.00;;
18754;SDS011;35061;47.664;9.166;2022-08-03T04:32:33;3.47;;;3.10;;
18754;SDS011;35061;47.664;9.166;2022-08-03T04:35:08;3.58;;;2.80;;
18754;SDS011;35061;47.664;9.166;2022-08-03T04:37:38;3.58;;;3.28;;
18754;SDS011;35061;47.664;9.166;2022-08-03T04:40:13;5.95;;;3.35;;
18754;SDS011;35061;47.664;9.166;2022-08-03T04:42:48;3.37;;;3.08;;
18754;SDS011;35061;47.664;9.166;2022-08-03T04:45:17;4.03;;;3.10;;
18754;SDS011;35061;47.664;9.166;2022-08-03T04:47:47;3.40;;;2.92;;
18754;SDS011;35061;47.664;9.166;2022-08-03T04:50:16;4.00;;;3.05;;
18754;SDS011;35061;47.664;9.166;2022-08-03T04:52:47;3.45;;;3.15;;
18754;SDS011;35061;47.664;9.166;2022-08-03T04:58:12;3.80;;;3.50;;
18754;SDS011;35061;47.664;9.166;2022-08-03T05:00:39;5.40;;;3.67;;
18754;SDS011;35061;47.664;9.166;2022-08-03T05:03:08;3.75;;;2.87;;
18754;SDS011;35061;47.664;9.166;2022-08-03T05:05:49;3.72;;;3.22;;
18754;SDS011;35061;47.664;9.166;2022-08-03T05:08:36;6.97;;;3.37;;
18754;SDS011;35061;47.664;9.166;2022-08-03T05:11:12;4.22;;;3.42;;
18754;SDS011;35061;47.664;9.166;2022-08-03T05:13:43;3.87;;;3.58;;
18754;SDS011;35061;47.664;9.166;2022-08-03T05:16:11;5.22;;;3.78;;
18754;SDS011;35061;47.664;9.166;2022-08-03T05:18:40;3.00;;;2.80;;
18754;SDS011;35061;47.664;9.166;2022-08-03T05:21:09;4.12;;;3.55;;
18754;SDS011;35061;47.664;9.166;2022-08-03T05:23:38;3.45;;;3.15;;
18754;SDS011;35061;47.664;9.166;2022-08-03T05:26:07;3.78;;;3.28;;
18754;SDS011;35061;47.664;9.166;2022-08-03T05:28:35;5.87;;;3.20;;
18754;SDS011;35061;47.664;9.166;2022-08-03T05:31:03;4.07;;;3.62;;
18754;SDS011;35061;47.664;9.166;2022-08-03T05:33:30;3.28;;;2.97;;
18754;SDS011;35061;47.664;9.166;2022-08-03T05:35:58;4.80;;;4.20;;
18754;SDS011;35061;47.664;9.166;2022-08-03T05:38:30;4.60;;;3.58;;
18754;SDS011;35061;47.664;9.166;2022-08-03T05:41:00;6.45;;;3.33;;
18754;SDS011;35061;47.664;9.166;2022-08-03T05:43:49;4.22;;;3.83;;
18754;SDS011;35061;47.664;9.166;2022-08-03T05:46:18;4.95;;;4.12;;
18754;SDS011;35061;47.664;9.166;2022-08-03T05:48:46;4.95;;;3.67;;
18754;SDS011;35061;47.664;9.166;2022-08-03T05:51:14;4.75;;;4.32;;
18754;SDS011;35061;47.664;9.166;2022-08-03T05:53:42;3.58;;;3.00;;
18754;SDS011;35061;47.664;9.166;2022-08-03T05:56:10;4.37;;;3.97;;
18754;SDS011;35061;47.664;9.166;2022-08-03T05:58:42;3.70;;;3.40;;
18754;SDS011;35061;47.664;9.166;2022-08-03T06:01:13;4.68;;;3.50;;
18754;SDS011;35061;47.664;9.166;2022-08-03T06:03:42;3.53;;;3.22;;
18754;SDS011;35061;47.664;9.166;2022-08-03T06:06:11;4.28;;;2.97;;
18754;SDS011;35061;47.664;9.166;2022-08-03T06:08:39;3.62;;;2.97;;
18754;SDS011;35061;47.664;9.166;2022-08-03T06:11:08;5.47;;;3.33;;
18754;SDS011;35061;47.664;9.166;2022-08-03T06:13:36;3.40;;;3.10;;
18754;SDS011;35061;47.664;9.166;2022-08-03T06:16:04;3.47;;;3.17;;
18754;SDS011;35061;47.664;9.166;2022-08-03T06:18:32;4.85;;;3.17;;
18754;SDS011;35061;47.664;9.166;2022-08-03T06:21:00;4.37;;;3.30;;
18754;SDS011;35061;47.664;9.166;2022-08-03T06:23:41;4.03;;;2.83;;
18754;SDS011;35061;47.664;9.166;2022-08-03T06:26:20;3.72;;;3.25;;
18754;SDS011;35061;47.664;9.166;2022-08-03T06:28:47;3.65;;;3.35;;
18754;SDS011;35061;47.664;9.166;2022-08-03T06:31:19;3.15;;;2.85;;
18754;SDS011;35061;47.664;9.166;2022-08-03T06:33:49;5.45;;;2.92;;
18754;SDS011;35061;47.664;9.166;2022-08-03T06:36:36;3.17;;;2.87;;
18754;SDS011;35061;47.664;9.166;2022-08-03T06:39:04;3.20;;;2.90;;
18754;SDS011;35061;47.664;9.166;2022-08-03T06:41:33;4.95;;;2.60;;
18754;SDS011;35061;47.664;9.166;2022-08-03T06:44:10;3.45;;;2.83;;
18754;SDS011;35061;47.664;9.166;2022-08-03T06:46:37;3.58;;;3.08;;
18754;SDS011;35061;47.664;9.166;2022-08-03T06:49:06;4.03;;;2.70;;
18754;SDS011;35061;47.664;9.166;2022-08-03T06:51:34;3.80;;;3.30;;
18754;SDS011;35061;47.664;9.166;2022-08-03T06:54:21;3.70;;;3.03;;
18754;SDS011;35061;47.664;9.166;2022-08-03T06:56:50;3.92;;;2.75;;
18754;SDS011;35061;47.664;9.166;2022-08-03T06:59:18;10.20;;;3.20;;
18754;SDS011;35061;47.664;9.166;2022-08-03T07:02:06;3.95;;;2.97;;
18754;SDS011;35061;47.664;9.166;2022-08-03T07:04:33;4.65;;;3.08;;
18754;SDS011;35061;47.664;9.166;2022-08-03T07:07:01;3.58;;;3.10;;
18754;SDS011;35061;47.664;9.166;2022-08-03T07:09:29;3.37;;;3.08;;
18754;SDS011;35061;47.664;9.166;2022-08-03T07:11:57;3.58;;;2.90;;
18754;SDS011;35061;47.664;9.166;2022-08-03T07:14:25;3.05;;;2.85;;
18754;SDS011;35061;47.664;9.166;2022-08-03T07:16:54;2.72;;;2.53;;
18754;SDS011;35061;47.664;9.166;2022-08-03T07:19:21;3.10;;;2.80;;
18754;SDS011;35061;47.664;9.166;2022-08-03T07:21:49;2.65;;;2.42;;
18754;SDS011;35061;47.664;9.166;2022-08-03T07:24:18;2.87;;;2.67;;
18754;SDS011;35061;47.664;9.166;2022-08-03T07:26:46;4.65;;;3.12;;
18754;SDS011;35061;47.664;9.166;2022-08-03T07:29:14;3.55;;;2.92;;
18754;SDS011;35061;47.664;9.166;2022-08-03T07:31:41;2.80;;;2.60;;
18754;SDS011;35061;47.664;9.166;2022-08-03T07:34:09;3.03;;;2.72;;
18754;SDS011;35061;47.664;9.166;2022-08-03T07:36:37;3.67;;;3.37;;
18754;SDS011;35061;47.664;9.166;2022-08-03T07:39:05;2.90;;;2.60;;
18754;SDS011;35061;47.664;9.166;2022-08-03T07:41:43;3.00;;;2.72;;
18754;SDS011;35061;47.664;9.166;2022-08-03T07:44:12;2.58;;;2.30;;
18754;SDS011;35061;47.664;9.166;2022-08-03T07:46:40;4.12;;;2.75;;
18754;SDS011;35061;47.664;9.166;2022-08-03T07:49:08;2.62;;;2.28;;
18754;SDS011;35061;47.664;9.166;2022-08-03T07:51:36;2.83;;;2.62;;
18754;SDS011;35061;47.664;9.166;2022-08-03T07:54:04;3.67;;;2.62;;
18754;SDS011;35061;47.664;9.166;2022-08-03T07:56:32;2.72;;;2.53;;
18754;SDS011;35061;47.664;9.166;2022-08-03T07:59:00;4.75;;;2.70;;
18754;SDS011;35061;47.664;9.166;2022-08-03T08:01:29;3.33;;;2.90;;
18754;SDS011;35061;47.664;9.166;2022-08-03T08:03:59;3.30;;;2.30;;
18754;SDS011;35061;47.664;9.166;2022-08-03T08:06:26;7.40;;;3.00;;
18754;SDS011;35061;47.664;9.166;2022-08-03T08:08:54;2.85;;;2.58;;
18754;SDS011;35061;47.664;9.166;2022-08-03T08:11:25;2.87;;;2.65;;
18754;SDS011;35061;47.664;9.166;2022-08-03T08:13:53;2.78;;;2.50;;
18754;SDS011;35061;47.664;9.166;2022-08-03T08:16:21;2.90;;;2.70;;
18754;SDS011;35061;47.664;9.166;2022-08-03T08:18:48;4.30;;;3.22;;
18754;SDS011;35061;47.664;9.166;2022-08-03T08:21:16;4.35;;;2.25;;
18754;SDS011;35061;47.664;9.166;2022-08-03T08:23:46;7.82;;;2.92;;
18754;SDS011;35061;47.664;9.166;2022-08-03T08:26:23;2.50;;;2.30;;
18754;SDS011;35061;47.664;9.166;2022-08-03T08:28:50;2.60;;;2.40;;
18754;SDS011;35061;47.664;9.166;2022-08-03T08:31:19;4.57;;;3.05;;
18754;SDS011;35061;47.664;9.166;2022-08-03T08:33:46;4.05;;;2.40;;
18754;SDS011;35061;47.664;9.166;2022-08-03T08:36:29;2.42;;;2.22;;
18754;SDS011;35061;47.664;9.166;2022-08-03T08:39:00;3.58;;;2.30;;
18754;SDS011;35061;47.664;9.166;2022-08-03T08:41:28;2.62;;;2.37;;
18754;SDS011;35061;47.664;9.166;2022-08-03T08:44:00;4.07;;;2.70;;
18754;SDS011;35061;47.664;9.166;2022-08-03T08:46:29;2.40;;;2.20;;
18754;SDS011;35061;47.664;9.166;2022-08-03T08:48:59;3.50;;;2.60;;
18754;SDS011;35061;47.664;9.166;2022-08-03T08:51:30;2.50;;;2.30;;
18754;SDS011;35061;47.664;9.166;2022-08-03T08:54:23;2.60;;;2.33;;
18754;SDS011;35061;47.664;9.166;2022-08-03T08:56:52;2.65;;;2.37;;
18754;SDS011;35061;47.664;9.166;2022-08-03T08:59:23;2.65;;;2.25;;
18754;SDS011;35061;47.664;9.166;2022-08-03T09:02:12;2.58;;;2.37;;
18754;SDS011;35061;47.664;9.166;2022-08-03T09:04:40;2.87;;;2.28;;
18754;SDS011;35061;47.664;9.166;2022-08-03T09:07:08;2.62;;;2.40;;
18754;SDS011;35061;47.664;9.166;2022-08-03T09:09:45;5.72;;;3.53;;
18754;SDS011;35061;47.664;9.166;2022-08-03T09:12:41;11.75;;;3.58;;
18754;SDS011;35061;47.664;9.166;2022-08-03T09:17:49;4.50;;;2.50;;
18754;SDS011;35061;47.664;9.166;2022-08-03T09:20:19;3.65;;;2.90;;
18754;SDS011;35061;47.664;9.166;2022-08-03T09:25:26;3.03;;;2.65;;
18754;SDS011;35061;47.664;9.166;2022-08-03T09:28:03;3.08;;;2.65;;
18754;SDS011;35061;47.664;9.166;2022-08-03T09:30:34;3.25;;;2.85;;
18754;SDS011;35061;47.664;9.166;2022-08-03T09:33:05;3.28;;;2.97;;
18754;SDS011;35061;47.664;9.166;2022-08-03T09:35:41;3.20;;;2.90;;
18754;SDS011;35061;47.664;9.166;2022-08-03T09:38:23;2.70;;;2.50;;
18754;SDS011;35061;47.664;9.166;2022-08-03T09:40:54;6.35;;;2.83;;
18754;SDS011;35061;47.664;9.166;2022-08-03T09:43:25;3.10;;;2.83;;
18754;SDS011;35061;47.664;9.166;2022-08-03T09:46:03;3.15;;;2.78;;
18754;SDS011;35061;47.664;9.166;2022-08-03T09:48:33;3.53;;;2.90;;
18754;SDS011;35061;47.664;9.166;2022-08-03T09:51:03;2.70;;;2.22;;
18754;SDS011;35061;47.664;9.166;2022-08-03T09:53:51;3.85;;;2.80;;
18754;SDS011;35061;47.664;9.166;2022-08-03T09:56:46;2.58;;;2.37;;
18754;SDS011;35061;47.664;9.166;2022-08-03T09:59:21;2.90;;;2.65;;
18754;SDS011;35061;47.664;9.166;2022-08-03T10:01:53;4.50;;;2.90;;
18754;SDS011;35061;47.664;9.166;2022-08-03T10:04:22;6.68;;;2.92;;
18754;SDS011;35061;47.664;9.166;2022-08-03T10:07:01;4.03;;;2.85;;
18754;SDS011;35061;47.664;9.166;2022-08-03T10:09:32;2.85;;;2.65;;
18754;SDS011;35061;47.664;9.166;2022-08-03T10:12:10;2.53;;;2.33;;
18754;SDS011;35061;47.664;9.166;2022-08-03T10:14:39;2.42;;;2.22;;
18754;SDS011;35061;47.664;9.166;2022-08-03T10:17:08;4.18;;;3.33;;
18754;SDS011;35061;47.664;9.166;2022-08-03T10:19:36;4.25;;;3.00;;
18754;SDS011;35061;47.664;9.166;2022-08-03T10:22:23;2.83;;;2.62;;
18754;SDS011;35061;47.664;9.166;2022-08-03T10:27:22;2.90;;;2.60;;
18754;SDS011;35061;47.664;9.166;2022-08-03T10:29:54;2.53;;;2.33;;
18754;SDS011;35061;47.664;9.166;2022-08-03T10:35:23;2.85;;;2.65;;
18754;SDS011;35061;47.664;9.166;2022-08-03T10:40:29;3.70;;;2.70;;
18754;SDS011;35061;47.664;9.166;2022-08-03T10:43:19;3.15;;;2.50;;
18754;SDS011;35061;47.664;9.166;2022-08-03T10:46:16;5.10;;;2.95;;
18754;SDS011;35061;47.664;9.166;2022-08-03T10:48:47;2.58;;;2.37;;
18754;SDS011;35061;47.664;9.166;2022-08-03T10:51:17;3.25;;;2.37;;
18754;SDS011;35061;47.664;9.166;2022-08-03T10:53:46;2.47;;;2.28;;
18754;SDS011;35061;47.664;9.166;2022-08-03T11:02:15;2.17;;;1.98;;
18754;SDS011;35061;47.664;9.166;2022-08-03T11:04:44;2.30;;;2.08;;
18754;SDS011;35061;47.664;9.166;2022-08-03T11:09:47;2.50;;;2.12;;
18754;SDS011;35061;47.664;9.166;2022-08-03T11:12:23;2.28;;;1.80;;
18754;SDS011;35061;47.664;9.166;2022-08-03T11:14:59;2.30;;;2.10;;
18754;SDS011;35061;47.664;9.166;2022-08-03T11:17:34;2.47;;;2.15;;
18754;SDS011;35061;47.664;9.166;2022-08-03T11:23:10;3.35;;;1.90;;
18754;SDS011;35061;47.664;9.166;2022-08-03T11:28:35;1.75;;;1.65;;
18754;SDS011;35061;47.664;9.166;2022-08-03T11:34:14;1.80;;;1.70;;
18754;SDS011;35061;47.664;9.166;2022-08-03T11:39:53;1.60;;;1.50;;
18754;SDS011;35061;47.664;9.166;2022-08-03T11:44:51;4.40;;;2.20;;
18754;SDS011;35061;47.664;9.166;2022-08-03T11:47:20;2.53;;;2.20;;
18754;SDS011;35061;47.664;9.166;2022-08-03T11:49:51;2.85;;;1.73;;
18754;SDS011;35061;47.664;9.166;2022-08-03T11:52:21;2.30;;;1.77;;
18754;SDS011;35061;47.664;9.166;2022-08-03T11:54:53;1.70;;;1.60;;
18754;SDS011;35061;47.664;9.166;2022-08-03T11:57:29;1.50;;;1.40;;
18754;SDS011;35061;47.664;9.166;2022-08-03T12:00:22;1.90;;;1.80;;
18754;SDS011;35061;47.664;9.166;2022-08-03T12:03:30;1.75;;;1.65;;
18754;SDS011;35061;47.664;9.166;2022-08-03T12:05:47;2.65;;;1.58;;
18754;SDS011;35061;47.664;9.166;2022-08-03T12:10:54;1.48;;;1.37;;
18754;SDS011;35061;47.664;9.166;2022-08-03T12:13:23;1.50;;;1.40;;
18754;SDS011;35061;47.664;9.166;2022-08-03T12:16:16;1.50;;;1.40;;
18754;SDS011;35061;47.664;9.166;2022-08-03T12:18:59;1.48;;;1.37;;
18754;SDS011;35061;47.664;9.166;2022-08-03T12:21:28;1.70;;;1.40;;
18754;SDS011;35061;47.664;9.166;2022-08-03T12:23:57;2.22;;;1.45;;
18754;SDS011;35061;47.664;9.166;2022-08-03T12:26:42;1.30;;;1.20;;
18754;SDS011;35061;47.664;9.166;2022-08-03T12:29:24;2.33;;;1.40;;
18754;SDS011;35061;47.664;9.166;2022-08-03T12:31:52;1.40;;;1.30;;
18754;SDS011;35061;47.664;9.166;2022-08-03T12:34:21;4.72;;;1.20;;
18754;SDS011;35061;47.664;9.166;2022-08-03T12:36:49;1.40;;;1.30;;
18754;SDS011;35061;47.664;9.166;2022-08-03T12:39:21;1.65;;;1.37;;
18754;SDS011;35061;47.664;9.166;2022-08-03T12:41:54;1.05;;;0.95;;
18754;SDS011;35061;47.664;9.166;2022-08-03T12:44:33;1.50;;;1.40;;
18754;SDS011;35061;47.664;9.166;2022-08-03T12:47:02;1.30;;;1.20;;
18754;SDS011;35061;47.664;9.166;2022-08-03T12:49:48;1.83;;;0.95;;
18754;SDS011;35061;47.664;9.166;2022-08-03T12:52:21;2.25;;;1.23;;
18754;SDS011;35061;47.664;9.166;2022-08-03T12:54:56;1.00;;;1.00;;
18754;SDS011;35061;47.664;9.166;2022-08-03T12:57:25;1.42;;;1.33;;
18754;SDS011;35061;47.664;9.166;2022-08-03T13:00:13;3.30;;;1.00;;
18754;SDS011;35061;47.664;9.166;2022-08-03T13:03:13;1.50;;;1.00;;
18754;SDS011;35061;47.664;9.166;2022-08-03T13:06:00;2.58;;;1.23;;
18754;SDS011;35061;47.664;9.166;2022-08-03T13:08:28;1.33;;;1.08;;
18754;SDS011;35061;47.664;9.166;2022-08-03T13:10:56;1.35;;;1.25;;
18754;SDS011;35061;47.664;9.166;2022-08-03T13:13:38;1.30;;;1.00;;
18754;SDS011;35061;47.664;9.166;2022-08-03T13:16:06;1.20;;;1.08;;
18754;SDS011;35061;47.664;9.166;2022-08-03T13:18:34;1.20;;;1.10;;
18754;SDS011;35061;47.664;9.166;2022-08-03T13:21:03;1.50;;;1.40;;
18754;SDS011;35061;47.664;9.166;2022-08-03T13:23:31;0.93;;;0.93;;
18754;SDS011;35061;47.664;9.166;2022-08-03T13:25:58;1.35;;;1.17;;
18754;SDS011;35061;47.664;9.166;2022-08-03T13:28:26;1.20;;;1.10;;
18754;SDS011;35061;47.664;9.166;2022-08-03T13:30:54;1.62;;;1.40;;
18754;SDS011;35061;47.664;9.166;2022-08-03T13:33:22;1.77;;;1.50;;
18754;SDS011;35061;47.664;9.166;2022-08-03T13:35:49;1.05;;;1.05;;
18754;SDS011;35061;47.664;9.166;2022-08-03T13:38:17;1.42;;;1.33;;
18754;SDS011;35061;47.664;9.166;2022-08-03T13:40:52;1.90;;;1.65;;
18754;SDS011;35061;47.664;9.166;2022-08-03T13:43:21;1.98;;;1.50;;
18754;SDS011;35061;47.664;9.166;2022-08-03T13:45:48;1.37;;;1.27;;
18754;SDS011;35061;47.664;9.166;2022-08-03T13:48:23;1.60;;;1.30;;
18754;SDS011;35061;47.664;9.166;2022-08-03T13:51:03;2.42;;;2.00;;
18754;SDS011;35061;47.664;9.166;2022-08-03T13:53:47;2.12;;;1.35;;
18754;SDS011;35061;47.664;9.166;2022-08-03T13:56:15;1.60;;;1.50;;
18754;SDS011;35061;47.664;9.166;2022-08-03T13:58:43;2.12;;;1.45;;
18754;SDS011;35061;47.664;9.166;2022-08-03T14:01:10;1.70;;;1.60;;
18754;SDS011;35061;47.664;9.166;2022-08-03T14:03:38;1.70;;;1.60;;
18754;SDS011;35061;47.664;9.166;2022-08-03T14:06:06;1.40;;;1.30;;
18754;SDS011;35061;47.664;9.166;2022-08-03T14:08:34;1.70;;;1.60;;
18754;SDS011;35061;47.664;9.166;2022-08-03T14:11:02;1.58;;;1.48;;
18754;SDS011;35061;47.664;9.166;2022-08-03T14:13:30;1.60;;;1.50;;
18754;SDS011;35061;47.664;9.166;2022-08-03T14:15:57;1.25;;;1.20;;
18754;SDS011;35061;47.664;9.166;2022-08-03T14:18:27;1.50;;;1.40;;
18754;SDS011;35061;47.664;9.166;2022-08-03T14:21:00;1.73;;;1.62;;
18754;SDS011;35061;47.664;9.166;2022-08-03T14:23:31;1.50;;;1.40;;
18754;SDS011;35061;47.664;9.166;2022-08-03T14:26:00;1.33;;;1.23;;
18754;SDS011;35061;47.664;9.166;2022-08-03T14:28:28;1.40;;;1.30;;
18754;SDS011;35061;47.664;9.166;2022-08-03T14:30:56;2.70;;;1.58;;
18754;SDS011;35061;47.664;9.166;2022-08-03T14:33:24;1.62;;;1.33;;
18754;SDS011;35061;47.664;9.166;2022-08-03T14:35:51;2.53;;;1.20;;
18754;SDS011;35061;47.664;9.166;2022-08-03T14:38:19;2.40;;;1.37;;
18754;SDS011;35061;47.664;9.166;2022-08-03T14:40:48;2.10;;;1.40;;
18754;SDS011;35061;47.664;9.166;2022-08-03T14:43:16;2.42;;;1.33;;
18754;SDS011;35061;47.664;9.166;2022-08-03T14:45:49;1.67;;;1.00;;
18754;SDS011;35061;47.664;9.166;2022-08-03T14:48:19;1.40;;;1.30;;
18754;SDS011;35061;47.664;9.166;2022-08-03T14:51:09;1.20;;;1.10;;
18754;SDS011;35061;47.664;9.166;2022-08-03T14:53:36;1.83;;;1.35;;
18754;SDS011;35061;47.664;9.166;2022-08-03T14:56:04;1.50;;;1.40;;
18754;SDS011;35061;47.664;9.166;2022-08-03T14:58:36;1.65;;;1.55;;
18754;SDS011;35061;47.664;9.166;2022-08-03T15:01:04;1.58;;;1.30;;
18754;SDS011;35061;47.664;9.166;2022-08-03T15:03:53;1.62;;;1.52;;
18754;SDS011;35061;47.664;9.166;2022-08-03T15:06:21;1.37;;;1.27;;
18754;SDS011;35061;47.664;9.166;2022-08-03T15:08:49;1.42;;;1.20;;
18754;SDS011;35061;47.664;9.166;2022-08-03T15:11:37;2.20;;;1.20;;
18754;SDS011;35061;47.664;9.166;2022-08-03T15:14:05;1.35;;;1.12;;
18754;SDS011;35061;47.664;9.166;2022-08-03T15:16:34;1.62;;;1.33;;
18754;SDS011;35061;47.664;9.166;2022-08-03T15:19:02;2.30;;;1.37;;
18754;SDS011;35061;47.664;9.166;2022-08-03T15:21:51;1.65;;;1.52;;
18754;SDS011;35061;47.664;9.166;2022-08-03T15:24:18;2.33;;;1.37;;
18754;SDS011;35061;47.664;9.166;2022-08-03T15:26:46;1.40;;;1.30;;
18754;SDS011;35061;47.664;9.166;2022-08-03T15:29:14;1.92;;;1.33;;
18754;SDS011;35061;47.664;9.166;2022-08-03T15:32:02;1.62;;;1.30;;
18754;SDS011;35061;47.664;9.166;2022-08-03T15:34:34;1.12;;;1.12;;
18754;SDS011;35061;47.664;9.166;2022-08-03T15:37:02;1.10;;;1.00;;
18754;SDS011;35061;47.664;9.166;2022-08-03T15:39:48;1.25;;;1.15;;
18754;SDS011;35061;47.664;9.166;2022-08-03T15:42:26;1.05;;;1.05;;
18754;SDS011;35061;47.664;9.166;2022-08-03T15:44:57;1.83;;;1.30;;
18754;SDS011;35061;47.664;9.166;2022-08-03T15:47:25;2.08;;;1.40;;
18754;SDS011;35061;47.664;9.166;2022-08-03T15:49:53;1.65;;;1.23;;
18754;SDS011;35061;47.664;9.166;2022-08-03T15:52:21;1.60;;;1.50;;
18754;SDS011;35061;47.664;9.166;2022-08-03T15:54:49;1.50;;;1.40;;
18754;SDS011;35061;47.664;9.166;2022-08-03T15:57:17;1.30;;;1.20;;
18754;SDS011;35061;47.664;9.166;2022-08-03T15:59:45;1.83;;;1.30;;
18754;SDS011;35061;47.664;9.166;2022-08-03T16:02:13;1.62;;;1.48;;
18754;SDS011;35061;47.664;9.166;2022-08-03T16:04:41;1.40;;;1.30;;
18754;SDS011;35061;47.664;9.166;2022-08-03T16:07:08;1.48;;;1.37;;
18754;SDS011;35061;47.664;9.166;2022-08-03T16:09:38;1.30;;;1.20;;
18754;SDS011;35061;47.664;9.166;2022-08-03T16:12:08;1.42;;;1.10;;